Saint-Fabien, Canada
Current Conditions -  °F | °C
As of 1:00 PM on Thursday 30 Oct 2014 (Local Time) from CYYY Reporting Station
Broken Clouds Broken Clouds  
Wind Chill: 37°   Ceiling: 5000
Heat Index: 45°   Visibility: 30mi
Dew Point: 36°   Wind: 17mph
Humidity: 71%   Direction: 260°W
Pressure: 29.81"   Gusts: NA
Location:  48.28°N, 68.87°W
Report Text: CYYY 301700Z 26015KT 30SM FEW025 BKN050 07/02 A2981 RMK SC2SC3 SLP095
Loading
Personal Weather Stations






























Interactive Weather Map
Tropical Storm Tracking
New forecast layout! Learn more

10-Day Weather Forecast

Advertisements
Track Severe Weather on mobile